createdAt,value
2022-09-14T00:00:31.853Z,98448.00
2022-09-14T00:01:32.024Z,98445.00
2022-09-14T00:02:31.996Z,98448.00
2022-09-14T00:03:31.898Z,98445.00
2022-09-14T00:04:31.906Z,98444.00
2022-09-14T00:05:31.926Z,98444.00
2022-09-14T00:06:31.982Z,98443.00
2022-09-14T00:07:31.959Z,98443.00
2022-09-14T00:08:31.950Z,98442.00
2022-09-14T00:09:31.925Z,98448.00
2022-09-14T00:10:31.951Z,98443.00
2022-09-14T00:11:32.001Z,98440.00
2022-09-14T00:12:31.976Z,98445.00
2022-09-14T00:13:32.010Z,98441.00
2022-09-14T00:14:32.027Z,98435.00
2022-09-14T00:15:32.061Z,98438.00
2022-09-14T00:16:32.152Z,98438.00
2022-09-14T00:17:32.072Z,98435.00
2022-09-14T00:18:32.100Z,98438.00
2022-09-14T00:19:32.133Z,98436.00
2022-09-14T00:20:32.160Z,98435.00
2022-09-14T00:21:32.199Z,98440.00
2022-09-14T00:22:32.198Z,98437.00
2022-09-14T00:23:32.196Z,98436.00
2022-09-14T00:24:32.218Z,98422.00
2022-09-14T00:25:32.245Z,98423.00
2022-09-14T00:26:32.261Z,98426.00
2022-09-14T00:27:32.290Z,98421.00
2022-09-14T00:28:32.317Z,98424.00
2022-09-14T00:29:32.349Z,98422.00
2022-09-14T00:30:32.339Z,98421.00
2022-09-14T00:31:32.387Z,98423.00
2022-09-14T00:32:32.372Z,98424.00
2022-09-14T00:33:32.388Z,98431.00
2022-09-14T00:34:32.430Z,98431.00
2022-09-14T00:35:32.449Z,98432.00
2022-09-14T00:36:32.459Z,98433.00
2022-09-14T00:37:32.442Z,98428.00
2022-09-14T00:38:32.506Z,98436.00
2022-09-14T00:39:32.507Z,98429.00
2022-09-14T00:40:32.525Z,98427.00
2022-09-14T00:41:32.539Z,98422.00
2022-09-14T00:42:32.542Z,98414.00
2022-09-14T00:43:32.519Z,98414.00
2022-09-14T00:44:32.543Z,98410.00
2022-09-14T00:45:32.606Z,98406.00
2022-09-14T00:46:32.599Z,98402.00
2022-09-14T00:47:32.581Z,98409.00
2022-09-14T00:48:32.594Z,98408.00
2022-09-14T00:49:32.605Z,98414.00
2022-09-14T00:50:32.625Z,98412.00
2022-09-14T00:51:32.656Z,98417.00
2022-09-14T00:52:32.640Z,98408.00
2022-09-14T00:53:32.667Z,98414.00
2022-09-14T00:54:32.775Z,98417.00
2022-09-14T00:55:32.679Z,98420.00
2022-09-14T00:56:32.711Z,98420.00
2022-09-14T00:57:32.752Z,98416.00
2022-09-14T00:58:32.747Z,98416.00
2022-09-14T00:59:32.722Z,98414.00
2022-09-14T01:00:32.767Z,98411.00
2022-09-14T01:01:32.939Z,98408.00
2022-09-14T01:02:32.872Z,98407.00
2022-09-14T01:03:32.773Z,98405.00
2022-09-14T01:04:32.800Z,98404.00
2022-09-14T01:05:32.820Z,98410.00
2022-09-14T01:06:32.862Z,98408.00
2022-09-14T01:07:32.881Z,98414.00
2022-09-14T01:08:32.902Z,98410.00
2022-09-14T01:09:32.932Z,98410.00
2022-09-14T01:10:33.059Z,98417.00
2022-09-14T01:11:32.969Z,98416.00
2022-09-14T01:12:32.993Z,98414.00
2022-09-14T01:13:32.974Z,98420.00
2022-09-14T01:14:33.009Z,98420.00
2022-09-14T01:15:33.032Z,98415.00
2022-09-14T01:16:33.098Z,98416.00
2022-09-14T01:17:33.054Z,98417.00
2022-09-14T01:18:33.040Z,98415.00
2022-09-14T01:19:33.071Z,98413.00
2022-09-14T01:20:33.103Z,98413.00
2022-09-14T01:21:33.120Z,98407.00
2022-09-14T01:22:33.154Z,98404.00
2022-09-14T01:23:33.204Z,98402.00
2022-09-14T01:24:33.189Z,98399.00
2022-09-14T01:25:33.215Z,98397.00
2022-09-14T01:26:33.258Z,98396.00
2022-09-14T01:27:33.268Z,98391.00
2022-09-14T01:28:33.288Z,98388.00
2022-09-14T01:29:33.307Z,98383.00
2022-09-14T01:30:33.326Z,98380.00
2022-09-14T01:31:33.399Z,98378.00
2022-09-14T01:32:33.358Z,98378.00
2022-09-14T01:33:33.399Z,98376.00
2022-09-14T01:34:33.384Z,98379.00
2022-09-14T01:35:33.372Z,98378.00
2022-09-14T01:36:33.397Z,98378.00
2022-09-14T01:37:33.416Z,98382.00
2022-09-14T01:38:33.453Z,98384.00
2022-09-14T01:39:33.482Z,98385.00
2022-09-14T01:40:33.625Z,98385.00
2022-09-14T01:41:33.515Z,98385.00
2022-09-14T01:42:33.559Z,98385.00
2022-09-14T01:43:36.662Z,98385.00
2022-09-14T01:44:33.582Z,98380.00
2022-09-14T01:45:33.618Z,98384.00
2022-09-14T01:46:33.590Z,98380.00
2022-09-14T01:47:33.620Z,98377.00
2022-09-14T01:48:33.654Z,98377.00
2022-09-14T01:49:33.697Z,98370.00
2022-09-14T01:50:33.664Z,98368.00
2022-09-14T01:51:33.689Z,98367.00
2022-09-14T01:52:33.717Z,98363.00
2022-09-14T01:53:33.739Z,98361.00
2022-09-14T01:54:33.800Z,98366.00
2022-09-14T01:55:33.774Z,98367.00
2022-09-14T01:56:33.798Z,98365.00
2022-09-14T01:57:33.815Z,98358.00
2022-09-14T01:58:33.883Z,98366.00
2022-09-14T01:59:33.841Z,98362.00
2022-09-14T02:00:33.994Z,98364.00
2022-09-14T02:01:33.881Z,98361.00
2022-09-14T02:02:33.981Z,98354.00
2022-09-14T02:03:33.896Z,98352.00
2022-09-14T02:04:33.925Z,98349.00
2022-09-14T02:05:33.952Z,98346.00
2022-09-14T02:06:34.003Z,98347.00
2022-09-14T02:07:34.007Z,98350.00
2022-09-14T02:08:34.042Z,98354.00
2022-09-14T02:09:34.015Z,98348.00
2022-09-14T02:10:34.043Z,98341.00
2022-09-14T02:11:34.060Z,98347.00
2022-09-14T02:12:34.114Z,98348.00
2022-09-14T02:13:34.133Z,98344.00
2022-09-14T02:14:34.145Z,98345.00
2022-09-14T02:15:34.135Z,98341.00
2022-09-14T02:16:34.299Z,98340.00
2022-09-14T02:17:34.203Z,98339.00
2022-09-14T02:18:34.246Z,98341.00
2022-09-14T02:19:34.207Z,98337.00
2022-09-14T02:20:34.238Z,98338.00
2022-09-14T02:21:34.269Z,98335.00
2022-09-14T02:22:34.294Z,98342.00
2022-09-14T02:23:34.338Z,98340.00
2022-09-14T02:24:34.313Z,98341.00
2022-09-14T02:25:34.347Z,98351.00
2022-09-14T02:26:34.340Z,98351.00
2022-09-14T02:27:34.359Z,98351.00
2022-09-14T02:28:34.396Z,98349.00
2022-09-14T02:29:34.373Z,98344.00
2022-09-14T02:30:34.540Z,98348.00
2022-09-14T02:31:34.481Z,98351.00
2022-09-14T02:32:34.420Z,98346.00
2022-09-14T02:33:34.445Z,98344.00
2022-09-14T02:34:34.493Z,98351.00
2022-09-14T02:35:34.463Z,98346.00
2022-09-14T02:36:34.475Z,98347.00
2022-09-14T02:37:34.505Z,98349.00
2022-09-14T02:38:34.534Z,98352.00
2022-09-14T02:39:34.594Z,98354.00
2022-09-14T02:40:34.562Z,98348.00
2022-09-14T02:41:34.588Z,98356.00
2022-09-14T02:42:34.611Z,98352.00
2022-09-14T02:43:34.632Z,98350.00
2022-09-14T02:44:34.679Z,98347.00
2022-09-14T02:45:34.686Z,98349.00
2022-09-14T02:46:34.812Z,98349.00
2022-09-14T02:47:34.679Z,98353.00
2022-09-14T02:48:34.717Z,98346.00
2022-09-14T02:49:34.688Z,98349.00
2022-09-14T02:50:34.733Z,98351.00
2022-09-14T02:51:34.748Z,98356.00
2022-09-14T02:52:34.739Z,98357.00
2022-09-14T02:53:34.752Z,98362.00
2022-09-14T02:54:34.777Z,98366.00
2022-09-14T02:55:34.798Z,98371.00
2022-09-14T02:56:34.856Z,98379.00
2022-09-14T02:57:34.842Z,98380.00
2022-09-14T02:58:34.838Z,98380.00
2022-09-14T02:59:34.858Z,98379.00
2022-09-14T03:00:34.898Z,98380.00
2022-09-14T03:01:34.909Z,98381.00
2022-09-14T03:02:35.025Z,98384.00
2022-09-14T03:03:35.833Z,98386.00
2022-09-14T03:04:34.894Z,98386.00
2022-09-14T03:05:34.884Z,98395.00
2022-09-14T03:06:34.908Z,98396.00
2022-09-14T03:07:34.882Z,98400.00
2022-09-14T03:08:34.915Z,98400.00
2022-09-14T03:09:34.927Z,98401.00
2022-09-14T03:10:34.926Z,98403.00
2022-09-14T03:11:34.975Z,98404.00
2022-09-14T03:12:34.963Z,98415.00
2022-09-14T03:13:35.005Z,98413.00
2022-09-14T03:14:35.006Z,98405.00
2022-09-14T03:15:35.013Z,98397.00
2022-09-14T03:16:35.144Z,98387.00
2022-09-14T03:17:35.044Z,98376.00
2022-09-14T03:18:35.190Z,98369.00
2022-09-14T03:19:35.097Z,98362.00
2022-09-14T03:20:35.131Z,98362.00
2022-09-14T03:21:35.170Z,98361.00
2022-09-14T03:22:35.170Z,98358.00
2022-09-14T03:23:35.180Z,98355.00
2022-09-14T03:24:35.180Z,98350.00
2022-09-14T03:25:35.171Z,98348.00
2022-09-14T03:26:35.210Z,98339.00
2022-09-14T03:27:35.202Z,98334.00
2022-09-14T03:28:35.183Z,98331.00
2022-09-14T03:29:35.217Z,98328.00
2022-09-14T03:30:35.220Z,98317.00
2022-09-14T03:31:35.297Z,98317.00
2022-09-14T03:32:35.242Z,98315.00
2022-09-14T03:33:35.222Z,98312.00
2022-09-14T03:34:35.272Z,98308.00
2022-09-14T03:35:35.298Z,98299.00
2022-09-14T03:36:35.313Z,98299.00
2022-09-14T03:37:35.386Z,98297.00
2022-09-14T03:38:35.353Z,98296.00
2022-09-14T03:39:35.385Z,98295.00
2022-09-14T03:40:35.574Z,98296.00
2022-09-14T03:41:35.440Z,98294.00
2022-09-14T03:42:35.422Z,98297.00
2022-09-14T03:43:35.419Z,98296.00
2022-09-14T03:44:35.436Z,98294.00
2022-09-14T03:45:35.484Z,98288.00
2022-09-14T03:46:35.611Z,98290.00
2022-09-14T03:47:35.507Z,98290.00
2022-09-14T03:48:35.519Z,98286.00
2022-09-14T03:49:35.558Z,98289.00
2022-09-14T03:50:35.598Z,98288.00
2022-09-14T03:51:35.627Z,98284.00
2022-09-14T03:52:35.630Z,98283.00
2022-09-14T03:53:35.664Z,98278.00
2022-09-14T03:54:35.690Z,98277.00
2022-09-14T03:55:35.713Z,98282.00
2022-09-14T03:56:35.752Z,98278.00
2022-09-14T03:57:35.730Z,98286.00
2022-09-14T03:58:35.791Z,98291.00
2022-09-14T03:59:37.643Z,98292.00
2022-09-14T04:00:35.800Z,98291.00
2022-09-14T04:01:35.875Z,98284.00
2022-09-14T04:02:35.920Z,98288.00
2022-09-14T04:03:35.832Z,98289.00
2022-09-14T04:04:35.824Z,98289.00
2022-09-14T04:05:35.865Z,98295.00
2022-09-14T04:06:35.907Z,98290.00
2022-09-14T04:07:35.865Z,98290.00
2022-09-14T04:08:35.898Z,98288.00
2022-09-14T04:09:35.924Z,98283.00
2022-09-14T04:10:35.953Z,98290.00
2022-09-14T04:11:36.006Z,98288.00
2022-09-14T04:12:35.989Z,98286.00
2022-09-14T04:13:36.019Z,98289.00
2022-09-14T04:14:36.039Z,98292.00
2022-09-14T04:15:36.072Z,98293.00
2022-09-14T04:16:36.197Z,98292.00
2022-09-14T04:17:36.122Z,98296.00
2022-09-14T04:18:36.142Z,98291.00
2022-09-14T04:19:36.162Z,98281.00
2022-09-14T04:20:36.187Z,98276.00
2022-09-14T04:21:36.260Z,98270.00
2022-09-14T04:22:36.361Z,98268.00
2022-09-14T04:23:51.377Z,98255.00
2022-09-14T04:24:36.258Z,98249.00
2022-09-14T04:25:36.276Z,98250.00
2022-09-14T04:26:36.327Z,98250.00
2022-09-14T04:27:36.323Z,98248.00
2022-09-14T04:28:36.313Z,98246.00
2022-09-14T04:29:36.310Z,98242.00
2022-09-14T04:30:36.327Z,98242.00
2022-09-14T04:31:36.452Z,98239.00
2022-09-14T04:32:36.386Z,98241.00
2022-09-14T04:33:36.381Z,98239.00
2022-09-14T04:34:36.366Z,98240.00
2022-09-14T04:35:36.396Z,98237.00
2022-09-14T04:36:36.423Z,98231.00
2022-09-14T04:37:36.449Z,98237.00
2022-09-14T04:38:36.588Z,98236.00
2022-09-14T04:39:36.510Z,98236.00
2022-09-14T04:40:36.541Z,98235.00
2022-09-14T04:41:36.517Z,98243.00
2022-09-14T04:42:36.555Z,98239.00
2022-09-14T04:43:36.594Z,98239.00
2022-09-14T04:44:36.592Z,98235.00
2022-09-14T04:45:36.594Z,98235.00
2022-09-14T04:46:36.705Z,98230.00
2022-09-14T04:47:36.626Z,98228.00
2022-09-14T04:48:36.666Z,98231.00
2022-09-14T04:49:36.664Z,98231.00
2022-09-14T04:50:36.677Z,98231.00
2022-09-14T04:51:36.708Z,98232.00
2022-09-14T04:52:36.725Z,98238.00
2022-09-14T04:53:36.768Z,98233.00
2022-09-14T04:54:36.793Z,98237.00
2022-09-14T04:55:36.768Z,98236.00
2022-09-14T04:56:36.778Z,98236.00
2022-09-14T04:57:36.817Z,98236.00
2022-09-14T04:58:37.943Z,98235.00
2022-09-14T04:59:36.850Z,98235.00
2022-09-14T05:02:02.851Z,98238.00
2022-09-14T05:03:02.847Z,98236.00
2022-09-14T05:04:02.799Z,98231.00
2022-09-14T05:05:02.774Z,98236.00
2022-09-14T05:06:02.801Z,98233.00
2022-09-14T05:07:02.839Z,98234.00
2022-09-14T05:08:02.846Z,98236.00
2022-09-14T05:09:02.895Z,98234.00
2022-09-14T05:10:02.926Z,98234.00
2022-09-14T05:11:02.922Z,98232.00
2022-09-14T05:12:02.961Z,98231.00
2022-09-14T05:13:02.919Z,98232.00
2022-09-14T05:14:02.925Z,98233.00
2022-09-14T05:15:02.957Z,98231.00
2022-09-14T05:16:03.036Z,98228.00
2022-09-14T05:17:02.980Z,98229.00
2022-09-14T05:18:02.927Z,98228.00
2022-09-14T05:19:02.954Z,98231.00
2022-09-14T05:20:02.969Z,98230.00
2022-09-14T05:21:07.604Z,98228.00
2022-09-14T05:22:03.016Z,98229.00
2022-09-14T05:23:02.989Z,98227.00
2022-09-14T05:24:02.991Z,98230.00
2022-09-14T05:25:03.051Z,98227.00
2022-09-14T05:26:03.108Z,98228.00
2022-09-14T05:27:03.015Z,98227.00
2022-09-14T05:28:03.055Z,98224.00
2022-09-14T05:29:03.064Z,98221.00
2022-09-14T05:30:03.099Z,98217.00
2022-09-14T05:31:03.181Z,98210.00
2022-09-14T05:32:03.139Z,98210.00
2022-09-14T05:33:03.152Z,98204.00
2022-09-14T05:34:03.186Z,98202.00
2022-09-14T05:35:03.184Z,98199.00
2022-09-14T05:36:03.223Z,98197.00
2022-09-14T05:37:03.348Z,98202.00
2022-09-14T05:38:03.240Z,98200.00
2022-09-14T05:39:03.207Z,98197.00
2022-09-14T05:40:03.261Z,98204.00
2022-09-14T05:41:03.213Z,98202.00
2022-09-14T05:42:03.283Z,98205.00
2022-09-14T05:43:03.252Z,98205.00
2022-09-14T05:44:03.267Z,98204.00
2022-09-14T05:45:03.289Z,98206.00
2022-09-14T05:46:03.328Z,98208.00
2022-09-14T05:47:03.314Z,98205.00
2022-09-14T05:48:03.292Z,98211.00
2022-09-14T05:49:03.374Z,98212.00
2022-09-14T05:50:03.336Z,98209.00
2022-09-14T05:51:03.390Z,98213.00
2022-09-14T05:52:03.377Z,98214.00
2022-09-14T05:53:03.390Z,98215.00
2022-09-14T05:54:03.410Z,98218.00
2022-09-14T05:55:03.403Z,98214.00
2022-09-14T05:56:03.451Z,98218.00
2022-09-14T05:57:03.605Z,98219.00
2022-09-14T05:58:03.654Z,98218.00
2022-09-14T05:59:03.504Z,98220.00
2022-09-14T06:00:03.509Z,98222.00
2022-09-14T06:01:03.548Z,98216.00
2022-09-14T06:02:03.644Z,98216.00
2022-09-14T06:03:03.575Z,98219.00
2022-09-14T06:04:03.592Z,98219.00
2022-09-14T06:05:03.628Z,98220.00
2022-09-14T06:06:03.596Z,98220.00
2022-09-14T06:07:17.883Z,98217.00
2022-09-14T06:08:03.615Z,98218.00
2022-09-14T06:09:03.581Z,98215.00
2022-09-14T06:10:04.098Z,98216.00
2022-09-14T06:11:03.729Z,98214.00
2022-09-14T06:12:03.943Z,98212.00
2022-09-14T06:13:04.005Z,98216.00
2022-09-14T06:14:03.667Z,98213.00
2022-09-14T06:15:03.735Z,98214.00
2022-09-14T06:16:03.641Z,98212.00
2022-09-14T06:17:03.692Z,98215.00
2022-09-14T06:18:03.701Z,98214.00
2022-09-14T06:19:03.723Z,98218.00
2022-09-14T06:20:04.946Z,98220.00
2022-09-14T06:21:03.734Z,98218.00
2022-09-14T06:22:03.769Z,98213.00
2022-09-14T06:23:03.786Z,98212.00
2022-09-14T06:24:03.823Z,98218.00
2022-09-14T06:25:03.834Z,98207.00
2022-09-14T06:26:03.841Z,98207.00
2022-09-14T06:27:03.883Z,98205.00
2022-09-14T06:28:03.855Z,98209.00
2022-09-14T06:29:03.875Z,98207.00
2022-09-14T06:30:03.928Z,98208.00
2022-09-14T06:31:03.924Z,98206.00
2022-09-14T06:32:03.956Z,98205.00
2022-09-14T06:33:03.928Z,98203.00
2022-09-14T06:34:03.967Z,98202.00
2022-09-14T06:35:03.985Z,98201.00
2022-09-14T06:36:04.013Z,98203.00
2022-09-14T06:37:04.065Z,98203.00
2022-09-14T06:38:04.063Z,98204.00
2022-09-14T06:39:04.091Z,98200.00
2022-09-14T06:40:04.231Z,98197.00
2022-09-14T06:41:04.142Z,98200.00
2022-09-14T06:42:04.091Z,98197.00
2022-09-14T06:43:04.116Z,98200.00
2022-09-14T06:44:04.157Z,98199.00
2022-09-14T06:45:04.217Z,98200.00
2022-09-14T06:46:04.308Z,98199.00
2022-09-14T06:47:04.208Z,98202.00
2022-09-14T06:48:04.230Z,98200.00
2022-09-14T06:49:04.260Z,98200.00
2022-09-14T06:50:04.230Z,98201.00
2022-09-14T06:51:04.309Z,98202.00
2022-09-14T06:52:04.311Z,98199.00
2022-09-14T06:53:04.378Z,98200.00
2022-09-14T06:54:04.339Z,98198.00
2022-09-14T06:55:04.331Z,98200.00
2022-09-14T06:56:04.409Z,98199.00
2022-09-14T06:57:04.406Z,98196.00
2022-09-14T06:58:04.517Z,98195.00
2022-09-14T06:59:04.487Z,98193.00
2022-09-14T07:00:04.392Z,98190.00
2022-09-14T07:01:04.417Z,98191.00
2022-09-14T07:02:04.534Z,98188.00
2022-09-14T07:03:04.534Z,98189.00
2022-09-14T07:04:04.442Z,98188.00
2022-09-14T07:05:04.417Z,98191.00
2022-09-14T07:06:04.449Z,98191.00
2022-09-14T07:07:04.456Z,98191.00
2022-09-14T07:08:06.988Z,98192.00
2022-09-14T07:09:04.516Z,98191.00
2022-09-14T07:10:04.524Z,98197.00
2022-09-14T07:11:04.514Z,98194.00
2022-09-14T07:12:05.547Z,98197.00
2022-09-14T07:13:04.562Z,98197.00
2022-09-14T07:14:04.546Z,98198.00
2022-09-14T07:15:04.574Z,98197.00
2022-09-14T07:16:04.629Z,98192.00
2022-09-14T07:17:04.584Z,98201.00
2022-09-14T07:18:04.707Z,98201.00
2022-09-14T07:19:04.647Z,98200.00
2022-09-14T07:20:04.627Z,98203.00
2022-09-14T07:21:05.753Z,98205.00
2022-09-14T07:22:04.645Z,98202.00
2022-09-14T07:23:04.642Z,98201.00
2022-09-14T07:24:04.655Z,98199.00
2022-09-14T07:25:04.667Z,98199.00
2022-09-14T07:26:04.644Z,98203.00
2022-09-14T07:27:04.678Z,98202.00
2022-09-14T07:28:04.725Z,98204.00
2022-09-14T07:29:04.742Z,98206.00
2022-09-14T07:30:04.780Z,98207.00
2022-09-14T07:31:04.886Z,98211.00
2022-09-14T07:32:04.803Z,98215.00
2022-09-14T07:33:04.806Z,98214.00
2022-09-14T07:34:04.863Z,98209.00
2022-09-14T07:35:04.840Z,98211.00
2022-09-14T07:36:04.886Z,98207.00
2022-09-14T07:37:04.874Z,98206.00
2022-09-14T07:38:04.877Z,98210.00
2022-09-14T07:39:05.311Z,98214.00
2022-09-14T07:40:04.996Z,98211.00
2022-09-14T07:41:04.901Z,98213.00
2022-09-14T07:42:04.923Z,98213.00
2022-09-14T07:43:04.941Z,98213.00
2022-09-14T07:44:04.932Z,98214.00
2022-09-14T07:45:04.919Z,98219.00
2022-09-14T07:46:05.003Z,98223.00
2022-09-14T07:47:04.958Z,98226.00
2022-09-14T07:48:04.980Z,98225.00
2022-09-14T07:49:05.014Z,98225.00
2022-09-14T07:50:05.097Z,98226.00
2022-09-14T07:51:05.023Z,98228.00
2022-09-14T07:52:04.997Z,98222.00
2022-09-14T07:53:05.045Z,98219.00
2022-09-14T07:54:05.136Z,98217.00
2022-09-14T07:55:05.086Z,98217.00
2022-09-14T07:56:05.044Z,98216.00
2022-09-14T07:57:05.048Z,98213.00
2022-09-14T07:58:05.067Z,98217.00
2022-09-14T07:59:34.497Z,98217.00
2022-09-14T08:00:05.149Z,98216.00
2022-09-14T08:01:05.161Z,98217.00
2022-09-14T08:02:05.312Z,98222.00
2022-09-14T08:03:05.149Z,98228.00
2022-09-14T08:04:05.692Z,98224.00
2022-09-14T08:05:05.149Z,98223.00
2022-09-14T08:06:05.239Z,98225.00
2022-09-14T08:07:05.154Z,98222.00
2022-09-14T08:08:05.234Z,98225.00
2022-09-14T08:09:05.162Z,98229.00
2022-09-14T08:10:05.203Z,98230.00
2022-09-14T08:11:05.250Z,98232.00
2022-09-14T08:12:05.230Z,98227.00
2022-09-14T08:13:05.245Z,98230.00
2022-09-14T08:14:05.264Z,98229.00
2022-09-14T08:15:05.336Z,98233.00
2022-09-14T08:16:05.389Z,98232.00
2022-09-14T08:17:05.315Z,98229.00
2022-09-14T08:18:05.314Z,98225.00
2022-09-14T08:19:05.370Z,98222.00
2022-09-14T08:20:05.359Z,98221.00
2022-09-14T08:21:05.314Z,98223.00
2022-09-14T08:22:05.468Z,98229.00
2022-09-14T08:23:05.329Z,98230.00
2022-09-14T08:24:05.343Z,98234.00
2022-09-14T08:25:05.378Z,98227.00
2022-09-14T08:26:05.342Z,98217.00
2022-09-14T08:27:05.343Z,98215.00
2022-09-14T08:28:05.387Z,98216.00
2022-09-14T08:29:05.380Z,98214.00
2022-09-14T08:30:05.509Z,98212.00
2022-09-14T08:31:05.423Z,98206.00
2022-09-14T08:32:05.518Z,98204.00
2022-09-14T08:33:05.405Z,98202.00
2022-09-14T08:34:05.449Z,98204.00
2022-09-14T08:35:05.455Z,98208.00
2022-09-14T08:36:05.438Z,98213.00
2022-09-14T08:37:05.454Z,98224.00
2022-09-14T08:38:05.578Z,98226.00
2022-09-14T08:39:05.559Z,98228.00
2022-09-14T08:40:05.567Z,98229.00
2022-09-14T08:41:05.599Z,98223.00
2022-09-14T08:42:05.520Z,98225.00
2022-09-14T08:43:05.473Z,98225.00
2022-09-14T08:44:05.490Z,98230.00
2022-09-14T08:45:09.535Z,98239.00
2022-09-14T08:46:05.606Z,98246.00
2022-09-14T08:47:05.512Z,98245.00
2022-09-14T08:48:05.475Z,98248.00
2022-09-14T08:49:05.496Z,98245.00
2022-09-14T08:50:05.498Z,98241.00
2022-09-14T08:51:05.525Z,98247.00
2022-09-14T08:52:05.564Z,98247.00
2022-09-14T08:53:05.588Z,98249.00
2022-09-14T08:54:05.646Z,98246.00
2022-09-14T08:55:05.595Z,98245.00
2022-09-14T08:56:05.608Z,98240.00
2022-09-14T08:57:05.616Z,98238.00
2022-09-14T08:58:05.648Z,98236.00
2022-09-14T08:59:05.628Z,98234.00
2022-09-14T09:00:05.713Z,98234.00
2022-09-14T09:01:05.723Z,98224.00
2022-09-14T09:02:05.665Z,98227.00
2022-09-14T09:03:05.699Z,98232.00
2022-09-14T09:04:05.785Z,98227.00
2022-09-14T09:05:05.729Z,98227.00
2022-09-14T09:06:05.755Z,98230.00
2022-09-14T09:07:05.764Z,98235.00
2022-09-14T09:08:05.780Z,98251.00
2022-09-14T09:09:05.760Z,98259.00
2022-09-14T09:10:05.784Z,98259.00
2022-09-14T09:11:05.799Z,98266.00
2022-09-14T09:12:05.827Z,98265.00
2022-09-14T09:13:06.075Z,98263.00
2022-09-14T09:14:06.009Z,98259.00
2022-09-14T09:15:05.861Z,98261.00
2022-09-14T09:16:06.012Z,98263.00
2022-09-14T09:17:05.860Z,98257.00
2022-09-14T09:18:05.884Z,98267.00
2022-09-14T09:19:05.885Z,98263.00
2022-09-14T09:20:05.856Z,98264.00
2022-09-14T09:21:05.923Z,98264.00
2022-09-14T09:22:05.912Z,98269.00
2022-09-14T09:23:05.912Z,98271.00
2022-09-14T09:24:05.936Z,98272.00
2022-09-14T09:25:05.962Z,98266.00
2022-09-14T09:26:06.024Z,98272.00
2022-09-14T09:27:06.008Z,98276.00
2022-09-14T09:28:06.044Z,98271.00
2022-09-14T09:29:06.003Z,98282.00
2022-09-14T09:30:06.021Z,98281.00
2022-09-14T09:31:06.143Z,98281.00
2022-09-14T09:32:06.179Z,98285.00
2022-09-14T09:33:06.095Z,98287.00
2022-09-14T09:34:06.072Z,98289.00
2022-09-14T09:35:06.139Z,98287.00
2022-09-14T09:36:06.115Z,98289.00
2022-09-14T09:37:06.137Z,98290.00
2022-09-14T09:38:06.152Z,98282.00
2022-09-14T09:39:06.230Z,98279.00
2022-09-14T09:40:06.192Z,98277.00
2022-09-14T09:41:06.883Z,98276.00
2022-09-14T09:42:06.265Z,98275.00
2022-09-14T09:43:06.183Z,98272.00
2022-09-14T09:44:06.195Z,98273.00
2022-09-14T09:45:06.236Z,98277.00
2022-09-14T09:46:06.219Z,98280.00
2022-09-14T09:47:06.320Z,98281.00
2022-09-14T09:48:06.248Z,98288.00
2022-09-14T09:49:06.275Z,98290.00
2022-09-14T09:50:06.292Z,98294.00
2022-09-14T09:51:06.315Z,98287.00
2022-09-14T09:52:06.303Z,98285.00
2022-09-14T09:53:06.958Z,98283.00
2022-09-14T09:54:06.361Z,98282.00
2022-09-14T09:55:06.363Z,98276.00
2022-09-14T09:56:06.377Z,98276.00
2022-09-14T09:57:06.412Z,98280.00
2022-09-14T09:58:06.529Z,98280.00
2022-09-14T09:59:06.436Z,98287.00
2022-09-14T10:00:06.473Z,98286.00
2022-09-14T10:01:11.523Z,98292.00
2022-09-14T10:02:06.568Z,98295.00
2022-09-14T10:03:06.545Z,98300.00
2022-09-14T10:04:06.555Z,98290.00
2022-09-14T10:05:06.526Z,98299.00
2022-09-14T10:06:06.558Z,98299.00
2022-09-14T10:07:06.583Z,98295.00
2022-09-14T10:08:11.204Z,98283.00
2022-09-14T10:09:06.610Z,98289.00
2022-09-14T10:10:06.614Z,98285.00
2022-09-14T10:11:06.650Z,98295.00
2022-09-14T10:12:06.666Z,98293.00
2022-09-14T10:13:06.690Z,98290.00
2022-09-14T10:14:06.681Z,98282.00
2022-09-14T10:15:06.680Z,98278.00
2022-09-14T10:16:06.776Z,98270.00
2022-09-14T10:17:06.663Z,98275.00
2022-09-14T10:18:06.664Z,98271.00
2022-09-14T10:19:06.687Z,98267.00
2022-09-14T10:20:06.697Z,98262.00
2022-09-14T10:21:06.748Z,98257.00
2022-09-14T10:22:06.764Z,98254.00
2022-09-14T10:23:06.785Z,98248.00
2022-09-14T10:24:06.830Z,98248.00
2022-09-14T10:25:06.814Z,98246.00
2022-09-14T10:26:06.833Z,98244.00
2022-09-14T10:27:06.851Z,98246.00
2022-09-14T10:28:06.901Z,98243.00
2022-09-14T10:29:06.875Z,98240.00
2022-09-14T10:30:06.897Z,98243.00
2022-09-14T10:31:06.968Z,98242.00
2022-09-14T10:32:06.889Z,98244.00
2022-09-14T10:33:06.896Z,98240.00
2022-09-14T10:34:06.926Z,98236.00
2022-09-14T10:35:06.919Z,98232.00
2022-09-14T10:36:06.910Z,98226.00
2022-09-14T10:37:06.926Z,98229.00
2022-09-14T10:38:06.955Z,98227.00
2022-09-14T10:39:06.960Z,98225.00
2022-09-14T10:40:07.003Z,98220.00
2022-09-14T10:41:06.981Z,98219.00
2022-09-14T10:42:07.009Z,98224.00
2022-09-14T10:43:06.988Z,98217.00
2022-09-14T10:44:07.035Z,98213.00
2022-09-14T10:45:07.021Z,98217.00
2022-09-14T10:46:07.204Z,98212.00
2022-09-14T10:47:07.092Z,98210.00
2022-09-14T10:48:07.053Z,98204.00
2022-09-14T10:49:07.071Z,98199.00
2022-09-14T10:50:07.106Z,98202.00
2022-09-14T10:51:07.117Z,98199.00
2022-09-14T10:52:07.191Z,98192.00
2022-09-14T10:53:07.135Z,98199.00
2022-09-14T10:54:07.259Z,98199.00
2022-09-14T10:55:07.167Z,98193.00
2022-09-14T10:56:07.234Z,98192.00
2022-09-14T10:57:07.248Z,98189.00
2022-09-14T10:58:07.186Z,98184.00
2022-09-14T10:59:07.198Z,98179.00
2022-09-14T11:00:07.285Z,98178.00
2022-09-14T11:01:07.257Z,98179.00
2022-09-14T11:02:07.443Z,98173.00
2022-09-14T11:03:07.348Z,98165.00
2022-09-14T11:04:07.331Z,98164.00
2022-09-14T11:05:07.314Z,98169.00
2022-09-14T11:06:07.312Z,98170.00
2022-09-14T11:07:07.312Z,98170.00
2022-09-14T11:08:07.334Z,98179.00
2022-09-14T11:09:07.335Z,98181.00
2022-09-14T11:10:07.408Z,98181.00
2022-09-14T11:11:11.342Z,98183.00
2022-09-14T11:12:07.464Z,98179.00
2022-09-14T11:13:07.413Z,98186.00
2022-09-14T11:14:07.420Z,98185.00
2022-09-14T11:15:07.469Z,98184.00
2022-09-14T11:16:07.508Z,98180.00
2022-09-14T11:17:07.447Z,98182.00
2022-09-14T11:18:07.502Z,98182.00
2022-09-14T11:19:07.504Z,98180.00
2022-09-14T11:20:07.507Z,98176.00
2022-09-14T11:21:07.534Z,98177.00
2022-09-14T11:22:07.550Z,98177.00
2022-09-14T11:23:07.555Z,98178.00
2022-09-14T11:24:07.563Z,98177.00
2022-09-14T11:25:07.586Z,98174.00
2022-09-14T11:26:07.748Z,98181.00
2022-09-14T11:27:07.593Z,98178.00
2022-09-14T11:28:07.608Z,98179.00
2022-09-14T11:29:07.610Z,98186.00
2022-09-14T11:30:07.639Z,98183.00
2022-09-14T11:31:07.733Z,98178.00
2022-09-14T11:32:20.929Z,98173.00
2022-09-14T11:33:07.665Z,98170.00
2022-09-14T11:34:07.743Z,98161.00
2022-09-14T11:35:07.729Z,98164.00
2022-09-14T11:36:07.709Z,98162.00
2022-09-14T11:37:07.732Z,98162.00
2022-09-14T11:38:07.783Z,98155.00
2022-09-14T11:39:07.809Z,98152.00
2022-09-14T11:40:07.851Z,98151.00
2022-09-14T11:41:07.850Z,98148.00
2022-09-14T11:42:07.807Z,98149.00
2022-09-14T11:43:07.835Z,98143.00
2022-09-14T11:44:07.867Z,98140.00
2022-09-14T11:45:07.898Z,98138.00
2022-09-14T11:46:08.004Z,98136.00